Time;durP1;ratioP1;P1;durP2;ratioP2;P2;SDS_P1;SDS_P2;PMS_P1;PMS_P2;Temp;Humidity;BMP_temperature;BMP_pressure;BME280_temperature;BME280_humidity;BME280_pressure;Samples;Min_cycle;Max_cycle;Signal;HPM_P1;HPM_P2
2023/11/01 00:00:30;;;;;;;2.60;1.38;;;;;;;-145.87;100.00;54973.53;2089703;28;20044;-57
2023/11/01 00:01:31;;;;;;;4.45;1.77;;;;;;;-145.87;100.00;54973.53;2089989;28;20041;-57
2023/11/01 00:02:33;;;;;;;2.67;1.52;;;;;;;-145.87;100.00;54973.53;2089960;28;20051;-57
2023/11/01 00:03:34;;;;;;;4.53;1.83;;;;;;;-145.87;100.00;54973.53;2090014;28;20473;-58
2023/11/01 00:04:35;;;;;;;2.20;1.40;;;;;;;-145.87;100.00;54973.53;2090139;28;20052;-58
2023/11/01 00:05:36;;;;;;;2.28;1.38;;;;;;;-145.87;100.00;54973.53;2090378;28;20052;-58
2023/11/01 00:06:37;;;;;;;3.13;1.42;;;;;;;-145.87;100.00;54973.53;2090079;28;20045;-57
2023/11/01 00:07:38;;;;;;;2.97;1.60;;;;;;;-145.87;100.00;54973.53;2089630;28;20059;-57
2023/11/01 00:08:39;;;;;;;3.25;1.60;;;;;;;-145.87;100.00;54973.53;2090462;28;20052;-57
2023/11/01 00:09:40;;;;;;;4.53;1.40;;;;;;;-145.87;100.00;54973.53;2090209;28;20473;-57
2023/11/01 00:10:42;;;;;;;3.90;1.63;;;;;;;-145.87;100.00;54973.53;2090798;28;20053;-57
2023/11/01 00:11:43;;;;;;;3.53;1.20;;;;;;;-145.87;100.00;54973.53;2091966;28;20049;-57
2023/11/01 00:12:44;;;;;;;3.35;1.50;;;;;;;-145.87;100.00;54973.53;2091592;28;20056;-58
2023/11/01 00:13:45;;;;;;;2.22;1.20;;;;;;;-145.87;100.00;54973.53;2091692;28;20045;-58
2023/11/01 00:14:46;;;;;;;2.92;1.30;;;;;;;-145.87;100.00;54973.53;2091441;28;20064;-58
2023/11/01 00:15:47;;;;;;;4.78;1.65;;;;;;;-145.87;100.00;54973.53;2091471;28;20517;-57
2023/11/01 00:16:48;;;;;;;3.22;1.02;;;;;;;-145.87;100.00;54973.53;2091308;28;20048;-58
2023/11/01 00:17:49;;;;;;;2.28;1.38;;;;;;;-145.87;100.00;54973.53;2091798;28;20049;-57
2023/11/01 00:18:51;;;;;;;2.17;1.30;;;;;;;-145.87;100.00;54973.53;2091320;28;20043;-58
2023/11/01 00:19:52;;;;;;;3.15;1.10;;;;;;;-145.87;100.00;54973.53;2091347;28;20045;-57
2023/11/01 00:20:53;;;;;;;3.40;1.38;;;;;;;-145.87;100.00;54973.53;2091122;28;20106;-57
2023/11/01 00:21:54;;;;;;;3.80;1.20;;;;;;;-145.87;100.00;54973.53;2091639;28;20049;-57
2023/11/01 00:22:55;;;;;;;2.00;1.15;;;;;;;-145.87;100.00;54973.53;2091082;28;20052;-58
2023/11/01 00:23:57;;;;;;;5.15;1.55;;;;;;;-145.87;100.00;54973.53;2091342;28;20052;-58
2023/11/01 00:25:00;;;;;;;2.05;1.10;;;;;;;-145.87;100.00;54973.53;2090789;28;20060;-57
2023/11/01 00:26:01;;;;;;;4.28;1.40;;;;;;;-145.87;100.00;54973.53;2091182;28;20060;-57
2023/11/01 00:27:03;;;;;;;3.63;1.38;;;;;;;-145.87;100.00;54973.53;2090689;28;20057;-58
2023/11/01 00:28:04;;;;;;;2.58;1.20;;;;;;;-145.87;100.00;54973.53;2091409;28;20060;-58
2023/11/01 00:29:05;;;;;;;1.60;1.10;;;;;;;-145.87;100.00;54973.53;2090951;28;20053;-58
2023/11/01 00:30:07;;;;;;;2.83;1.27;;;;;;;-145.87;100.00;54973.53;2091131;28;20064;-58
2023/11/01 00:31:08;;;;;;;2.53;1.23;;;;;;;-145.87;100.00;54973.53;2090752;28;20057;-57
2023/11/01 00:32:09;;;;;;;3.15;1.27;;;;;;;-145.87;100.00;54973.53;2090922;28;20044;-57
2023/11/01 00:33:10;;;;;;;2.60;1.20;;;;;;;-145.87;100.00;54973.53;2090951;28;20048;-58
2023/11/01 00:34:12;;;;;;;3.40;1.15;;;;;;;-145.87;100.00;54973.53;2090813;28;20389;-57
2023/11/01 00:35:13;;;;;;;2.70;1.08;;;;;;;-145.87;100.00;54973.53;2091418;28;20063;-57
2023/11/01 00:36:14;;;;;;;3.13;1.33;;;;;;;-145.87;100.00;54973.53;2090664;28;20048;-57
2023/11/01 00:37:15;;;;;;;4.32;1.50;;;;;;;-145.87;100.00;54973.53;2082870;28;20057;-57
2023/11/01 00:38:22;;;;;;;3.85;1.58;;;;;;;-145.87;100.00;54973.53;2084445;28;20052;-57
2023/11/01 00:39:24;;;;;;;3.33;1.30;;;;;;;-145.87;100.00;54973.53;2092305;28;20049;-60
2023/11/01 00:40:25;;;;;;;2.63;1.40;;;;;;;-145.87;100.00;54973.53;2092541;28;20057;-59
2023/11/01 00:41:26;;;;;;;2.47;1.40;;;;;;;-145.87;100.00;54973.53;2091877;28;20107;-61
2023/11/01 00:42:27;;;;;;;4.32;1.33;;;;;;;-145.87;100.00;54973.53;2091834;28;20052;-59
2023/11/01 00:43:29;;;;;;;2.78;1.20;;;;;;;-145.87;100.00;54973.53;2091275;28;20405;-57
2023/11/01 00:44:30;;;;;;;3.30;1.55;;;;;;;-145.87;100.00;54973.53;2090783;28;20045;-57
2023/11/01 00:45:31;;;;;;;3.20;1.35;;;;;;;-145.87;100.00;54973.53;2091405;28;20377;-57
2023/11/01 00:46:32;;;;;;;3.03;1.17;;;;;;;-145.87;100.00;54973.53;2091111;28;20045;-58
2023/11/01 00:47:34;;;;;;;3.63;1.38;;;;;;;-145.87;100.00;54973.53;2090993;28;20033;-58
2023/11/01 00:48:35;;;;;;;1.25;0.82;;;;;;;-145.87;100.00;54973.53;2091019;28;20039;-57
2023/11/01 00:49:36;;;;;;;1.67;1.02;;;;;;;-145.87;100.00;54973.53;2091352;28;20474;-57
2023/11/01 00:50:37;;;;;;;4.43;1.60;;;;;;;-145.87;100.00;54973.53;2090532;28;20041;-58
2023/11/01 00:51:38;;;;;;;2.42;1.25;;;;;;;-145.87;100.00;54973.53;2090562;28;20061;-57
2023/11/01 00:52:39;;;;;;;4.05;1.00;;;;;;;-145.87;100.00;54973.53;2090940;28;20045;-57
2023/11/01 00:53:40;;;;;;;1.88;1.20;;;;;;;-145.87;100.00;54973.53;2091310;28;20496;-57
2023/11/01 00:54:41;;;;;;;2.08;1.08;;;;;;;-145.87;100.00;54973.53;2091221;28;20049;-57
2023/11/01 00:55:42;;;;;;;2.53;1.30;;;;;;;-145.87;100.00;54973.53;2091179;28;20064;-57
2023/11/01 00:56:44;;;;;;;1.88;0.55;;;;;;;-145.87;100.00;54973.53;2090795;28;20041;-58
2023/11/01 00:57:47;;;;;;;2.95;1.02;;;;;;;-145.87;100.00;54973.53;2090111;28;20049;-57
2023/11/01 00:58:48;;;;;;;3.33;0.90;;;;;;;-145.87;100.00;54973.53;2090654;28;20520;-57
2023/11/01 00:59:50;;;;;;;5.07;1.20;;;;;;;-145.87;100.00;54973.53;2091103;28;20049;-57
2023/11/01 01:00:51;;;;;;;2.33;0.90;;;;;;;-145.87;100.00;54973.53;2091196;28;20056;-57
2023/11/01 01:01:53;;;;;;;1.83;1.10;;;;;;;-145.87;100.00;54973.53;2091120;28;20083;-57
2023/11/01 01:02:54;;;;;;;1.30;0.80;;;;;;;-145.87;100.00;54973.53;2090740;28;20048;-57
2023/11/01 01:03:55;;;;;;;2.03;0.90;;;;;;;-145.87;100.00;54973.53;2090423;28;20421;-57
2023/11/01 01:04:56;;;;;;;1.40;0.80;;;;;;;-145.87;100.00;54973.53;2090688;28;20041;-58
2023/11/01 01:05:57;;;;;;;2.67;0.90;;;;;;;-145.87;100.00;54973.53;2090902;28;20036;-57
2023/11/01 01:06:59;;;;;;;2.53;0.85;;;;;;;-145.87;100.00;54973.53;2091044;28;20064;-57
2023/11/01 01:08:00;;;;;;;2.75;1.10;;;;;;;-145.87;100.00;54973.53;2091069;28;20465;-57
2023/11/01 01:09:01;;;;;;;2.15;0.77;;;;;;;-145.87;100.00;54973.53;2091016;28;20048;-57
2023/11/01 01:10:02;;;;;;;2.60;0.90;;;;;;;-145.87;100.00;54973.53;2090581;28;20048;-58
2023/11/01 01:11:04;;;;;;;3.70;0.90;;;;;;;-145.87;100.00;54973.53;2090302;28;20059;-57
2023/11/01 01:12:05;;;;;;;2.38;0.95;;;;;;;-145.87;100.00;54973.53;2090052;28;20064;-58
2023/11/01 01:13:07;;;;;;;2.83;1.00;;;;;;;-145.87;100.00;54973.53;2090458;28;20055;-57
2023/11/01 01:14:08;;;;;;;4.00;0.93;;;;;;;-145.87;100.00;54973.53;2090847;28;20468;-58
2023/11/01 01:15:09;;;;;;;3.67;1.40;;;;;;;-145.87;100.00;54973.53;2090893;28;20057;-57
2023/11/01 01:16:10;;;;;;;1.83;0.80;;;;;;;-145.87;100.00;54973.53;2090914;28;20476;-57
2023/11/01 01:17:11;;;;;;;1.95;1.15;;;;;;;-145.87;100.00;54973.53;2090933;28;20056;-57
2023/11/01 01:18:14;;;;;;;2.25;0.90;;;;;;;-145.87;100.00;54973.53;2090684;28;20061;-57
2023/11/01 01:19:15;;;;;;;2.20;0.60;;;;;;;-145.87;100.00;54973.53;2090873;28;20064;-57
2023/11/01 01:20:16;;;;;;;1.98;0.90;;;;;;;-145.87;100.00;54973.53;2091091;28;20051;-57
2023/11/01 01:21:17;;;;;;;1.52;0.80;;;;;;;-145.87;100.00;54973.53;2090716;28;20053;-57
2023/11/01 01:22:21;;;;;;;3.03;1.10;;;;;;;-145.87;100.00;54973.53;2089894;28;20111;-57
2023/11/01 01:23:22;;;;;;;1.75;0.85;;;;;;;-145.87;100.00;54973.53;2090253;28;20056;-57
2023/11/01 01:24:23;;;;;;;2.42;0.68;;;;;;;-145.87;100.00;54973.53;2098440;28;20060;-58
2023/11/01 01:25:24;;;;;;;2.05;0.70;;;;;;;-145.87;100.00;54973.53;2090989;28;20048;-58
2023/11/01 01:26:25;;;;;;;2.03;0.90;;;;;;;-145.87;100.00;54973.53;2090332;28;20048;-58
2023/11/01 01:27:27;;;;;;;2.85;0.75;;;;;;;-145.87;100.00;54973.53;2089925;28;20052;-57
2023/11/01 01:28:28;;;;;;;1.92;0.73;;;;;;;-145.87;100.00;54973.53;2090501;28;20061;-57
2023/11/01 01:29:29;;;;;;;2.15;0.90;;;;;;;-145.87;100.00;54973.53;2090550;28;20496;-58
2023/11/01 01:30:30;;;;;;;1.88;0.70;;;;;;;-145.87;100.00;54973.53;2082045;28;20045;-57
2023/11/01 01:31:33;;;;;;;2.10;0.90;;;;;;;-145.87;100.00;54973.53;2090277;28;20060;-57
2023/11/01 01:32:34;;;;;;;2.97;0.75;;;;;;;-145.87;100.00;54973.53;2091097;28;20060;-57
2023/11/01 01:33:35;;;;;;;2.78;1.17;;;;;;;-145.87;100.00;54973.53;2090817;28;20053;-57
2023/11/01 01:34:36;;;;;;;2.78;0.90;;;;;;;-145.87;100.00;54973.53;2090832;28;20147;-59
2023/11/01 01:35:37;;;;;;;3.25;0.80;;;;;;;-145.87;100.00;54973.53;2090843;28;20558;-57
2023/11/01 01:36:38;;;;;;;1.85;0.82;;;;;;;-145.87;100.00;54973.53;2089775;28;20049;-57
2023/11/01 01:37:40;;;;;;;2.65;1.00;;;;;;;-145.87;100.00;54973.53;2090260;28;20056;-56
2023/11/01 01:38:41;;;;;;;1.45;0.80;;;;;;;-145.87;100.00;54973.53;2090657;28;20397;-57
2023/11/01 01:39:42;;;;;;;2.33;0.70;;;;;;;-145.87;100.00;54973.53;2090421;28;20048;-57
2023/11/01 01:40:43;;;;;;;3.60;0.80;;;;;;;-145.87;100.00;54973.53;2090680;28;20056;-57
2023/11/01 01:41:44;;;;;;;2.72;0.93;;;;;;;-145.87;100.00;54973.53;2090235;28;20045;-57
2023/11/01 01:42:45;;;;;;;1.67;0.93;;;;;;;-145.87;100.00;54973.53;2090339;28;20481;-57
2023/11/01 01:43:47;;;;;;;2.03;0.80;;;;;;;-145.87;100.00;54973.53;2090828;28;20040;-57
2023/11/01 01:44:48;;;;;;;1.67;0.63;;;;;;;-145.87;100.00;54973.53;2090881;28;20041;-57
2023/11/01 01:45:58;;;;;;;2.15;0.77;;;;;;;-145.87;100.00;54973.53;2090227;28;20053;-57
2023/11/01 01:47:00;;;;;;;1.80;0.70;;;;;;;-145.87;100.00;54973.53;2083207;28;20061;-57
2023/11/01 01:48:01;;;;;;;3.35;1.15;;;;;;;-145.87;100.00;54973.53;2081577;28;20112;-57
2023/11/01 01:49:03;;;;;;;1.60;0.80;;;;;;;-145.87;100.00;54973.53;2081307;28;20080;-57
2023/11/01 01:50:04;;;;;;;3.03;0.85;;;;;;;-145.87;100.00;54973.53;2073901;28;20426;-57
2023/11/01 01:51:06;;;;;;;2.45;0.90;;;;;;;-145.87;100.00;54973.53;2081704;28;20051;-57
2023/11/01 01:52:07;;;;;;;2.10;0.70;;;;;;;-145.87;100.00;54973.53;2097764;28;20519;-56
2023/11/01 01:53:08;;;;;;;2.13;0.82;;;;;;;-145.87;100.00;54973.53;2089514;28;20053;-57
2023/11/01 01:54:10;;;;;;;1.65;0.52;;;;;;;-145.87;100.00;54973.53;2082278;28;20053;-57
2023/11/01 01:55:11;;;;;;;3.42;0.80;;;;;;;-145.87;100.00;54973.53;2081868;28;20056;-57
2023/11/01 01:56:12;;;;;;;0.80;0.68;;;;;;;-145.87;100.00;54973.53;2082019;28;20513;-57
2023/11/01 01:57:13;;;;;;;3.42;0.70;;;;;;;-145.87;100.00;54973.53;2081846;28;20045;-56
2023/11/01 01:58:14;;;;;;;3.72;0.73;;;;;;;-145.87;100.00;54973.53;2081877;28;20620;-57
2023/11/01 01:59:15;;;;;;;3.65;0.90;;;;;;;-145.87;100.00;54973.53;2073308;28;20057;-57
2023/11/01 02:00:17;;;;;;;3.20;0.80;;;;;;;-145.87;100.00;54973.53;2065236;28;20518;-58
2023/11/01 02:01:18;;;;;;;1.50;0.75;;;;;;;-145.87;100.00;54973.53;2081405;28;20052;-56
2023/11/01 02:02:20;;;;;;;1.65;0.60;;;;;;;-145.87;100.00;54973.53;2081729;28;20541;-58
2023/11/01 02:03:22;;;;;;;2.92;0.70;;;;;;;-145.87;100.00;54973.53;2081879;28;20042;-56
2023/11/01 02:04:24;;;;;;;2.00;0.90;;;;;;;-145.87;100.00;54973.53;2082189;28;20054;-57
2023/11/01 02:05:26;;;;;;;1.55;0.90;;;;;;;-145.87;100.00;54973.53;2089937;28;20045;-56
2023/11/01 02:06:27;;;;;;;5.93;1.63;;;;;;;-145.87;100.00;54973.53;2089903;28;20052;-56
2023/11/01 02:07:29;;;;;;;2.20;0.88;;;;;;;-145.87;100.00;54973.53;2089935;28;20052;-56
2023/11/01 02:08:30;;;;;;;2.30;0.80;;;;;;;-145.87;100.00;54973.53;2090883;28;20057;-57
2023/11/01 02:09:31;;;;;;;2.20;0.80;;;;;;;-145.87;100.00;54973.53;2081976;28;20037;-57
2023/11/01 02:10:32;;;;;;;0.93;0.68;;;;;;;-145.87;100.00;54973.53;2081917;28;20512;-57
2023/11/01 02:11:36;;;;;;;2.03;1.00;;;;;;;-145.87;100.00;54973.53;2089942;28;20045;-56
2023/11/01 02:12:37;;;;;;;3.75;0.88;;;;;;;-145.87;100.00;54973.53;2081824;28;20049;-58
2023/11/01 02:13:38;;;;;;;1.92;0.68;;;;;;;-145.87;100.00;54973.53;2081804;28;20045;-57
2023/11/01 02:14:40;;;;;;;4.25;0.93;;;;;;;-145.87;100.00;54973.53;2090009;28;20370;-57
2023/11/01 02:15:42;;;;;;;4.15;0.90;;;;;;;-145.87;100.00;54973.53;2090459;28;20056;-58
2023/11/01 02:16:43;;;;;;;1.85;0.70;;;;;;;-145.87;100.00;54973.53;2090413;28;20044;-58
2023/11/01 02:17:44;;;;;;;2.50;0.80;;;;;;;-145.87;100.00;54973.53;2090669;28;20465;-58
2023/11/01 02:18:45;;;;;;;3.45;0.90;;;;;;;-145.87;100.00;54973.53;2089193;28;20052;-58
2023/11/01 02:19:46;;;;;;;4.97;0.82;;;;;;;-145.87;100.00;54973.53;2089714;28;20049;-58
2023/11/01 02:20:48;;;;;;;6.38;0.75;;;;;;;-145.87;100.00;54973.53;2081814;28;20038;-58
2023/11/01 02:21:49;;;;;;;2.10;0.80;;;;;;;-145.87;100.00;54973.53;2073704;28;20056;-57
2023/11/01 02:22:51;;;;;;;3.25;0.98;;;;;;;-145.87;100.00;54973.53;2081493;28;21122;-58
2023/11/01 02:23:52;;;;;;;4.40;1.17;;;;;;;-145.87;100.00;54973.53;2081584;28;20065;-57
2023/11/01 02:24:53;;;;;;;3.78;1.05;;;;;;;-145.87;100.00;54973.53;2065371;28;20046;-57
2023/11/01 02:25:55;;;;;;;2.92;0.70;;;;;;;-145.87;100.00;54973.53;2065539;28;20054;-57
2023/11/01 02:26:56;;;;;;;4.03;0.90;;;;;;;-145.87;100.00;54973.53;2073902;28;20521;-57
2023/11/01 02:27:58;;;;;;;2.45;0.95;;;;;;;-145.87;100.00;54973.53;2088885;28;20052;-57
2023/11/01 02:28:59;;;;;;;2.80;0.85;;;;;;;-145.87;100.00;54973.53;2089481;28;20049;-57
2023/11/01 02:30:00;;;;;;;2.08;0.88;;;;;;;-145.87;100.00;54973.53;2090439;28;20053;-57
2023/11/01 02:31:03;;;;;;;3.20;1.00;;;;;;;-145.87;100.00;54973.53;2090426;28;20060;-58
2023/11/01 02:32:04;;;;;;;3.53;0.70;;;;;;;-145.87;100.00;54973.53;2090423;28;20056;-57
2023/11/01 02:33:06;;;;;;;2.58;0.77;;;;;;;-145.87;100.00;54973.53;2090285;28;20496;-57
2023/11/01 02:34:08;;;;;;;2.72;0.70;;;;;;;-145.87;100.00;54973.53;2089975;28;20052;-58
2023/11/01 02:35:09;;;;;;;2.97;0.90;;;;;;;-145.87;100.00;54973.53;2089436;28;20057;-58
2023/11/01 02:36:10;;;;;;;2.60;0.88;;;;;;;-145.87;100.00;54973.53;2089877;28;20061;-57
2023/11/01 02:37:11;;;;;;;5.47;0.80;;;;;;;-145.87;100.00;54973.53;2090271;28;20071;-57
2023/11/01 02:38:12;;;;;;;3.03;0.80;;;;;;;-145.87;100.00;54973.53;2090125;28;20473;-57
2023/11/01 02:39:14;;;;;;;1.20;0.52;;;;;;;-145.87;100.00;54973.53;2089877;28;20049;-57
2023/11/01 02:40:15;;;;;;;2.05;0.82;;;;;;;-145.87;100.00;54973.53;2089705;28;20057;-57
2023/11/01 02:41:17;;;;;;;6.60;1.05;;;;;;;-145.87;100.00;54973.53;2090225;28;20053;-57
2023/11/01 02:42:18;;;;;;;2.38;0.60;;;;;;;-145.87;100.00;54973.53;2090258;28;20056;-58
2023/11/01 02:43:19;;;;;;;4.40;0.75;;;;;;;-145.87;100.00;54973.53;2090422;28;20408;-57
2023/11/01 02:44:20;;;;;;;2.22;0.70;;;;;;;-145.87;100.00;54973.53;2089730;28;20049;-57
2023/11/01 02:45:21;;;;;;;2.67;0.70;;;;;;;-145.87;100.00;54973.53;2089763;28;20048;-57
2023/11/01 02:46:23;;;;;;;2.30;0.70;;;;;;;-145.87;100.00;54973.53;2090486;28;20405;-57
2023/11/01 02:47:24;;;;;;;1.88;0.75;;;;;;;-145.87;100.00;54973.53;2089595;28;20052;-57
2023/11/01 02:48:26;;;;;;;3.05;0.60;;;;;;;-145.87;100.00;54973.53;2081400;28;20637;-57
2023/11/01 02:49:27;;;;;;;3.90;0.85;;;;;;;-145.87;100.00;54973.53;2089587;28;20045;-58
2023/11/01 02:50:29;;;;;;;3.20;0.70;;;;;;;-145.87;100.00;54973.53;2089359;28;20059;-57
2023/11/01 02:51:30;;;;;;;2.83;0.77;;;;;;;-145.87;100.00;54973.53;2089464;28;20053;-57
2023/11/01 02:52:35;;;;;;;4.10;0.80;;;;;;;-145.87;100.00;54973.53;2089485;28;20040;-58
2023/11/01 02:53:36;;;;;;;5.18;1.20;;;;;;;-145.87;100.00;54973.53;2089521;28;20507;-57
2023/11/01 02:54:37;;;;;;;4.78;1.00;;;;;;;-145.87;100.00;54973.53;2089752;28;20045;-57
2023/11/01 02:55:38;;;;;;;2.75;0.93;;;;;;;-145.87;100.00;54973.53;2090186;28;20044;-57
2023/11/01 02:56:39;;;;;;;5.10;1.08;;;;;;;-145.87;100.00;54973.53;2090366;28;20045;-57
2023/11/01 02:57:40;;;;;;;1.45;0.60;;;;;;;-145.87;100.00;54973.53;2090182;28;20103;-57
2023/11/01 02:58:42;;;;;;;2.50;0.80;;;;;;;-145.87;100.00;54973.53;2089462;28;20049;-57
2023/11/01 02:59:43;;;;;;;1.83;0.93;;;;;;;-145.87;100.00;54973.53;2090019;28;20076;-57
2023/11/01 03:00:44;;;;;;;2.20;0.68;;;;;;;-145.87;100.00;54973.53;2089313;28;20052;-57
2023/11/01 03:01:45;;;;;;;2.75;0.60;;;;;;;-145.87;100.00;54973.53;2089413;28;20036;-57
2023/11/01 03:02:49;;;;;;;2.95;0.90;;;;;;;-145.87;100.00;54973.53;2090390;28;20056;-58
2023/11/01 03:03:50;;;;;;;2.33;0.70;;;;;;;-145.87;100.00;54973.53;2089571;28;20049;-57
2023/11/01 03:04:52;;;;;;;3.40;0.82;;;;;;;-145.87;100.00;54973.53;2081184;28;20044;-58
2023/11/01 03:05:53;;;;;;;1.42;0.65;;;;;;;-145.87;100.00;54973.53;2088915;28;20108;-57
2023/11/01 03:06:54;;;;;;;3.95;0.80;;;;;;;-145.87;100.00;54973.53;2089277;28;20056;-57
2023/11/01 03:07:56;;;;;;;1.35;0.68;;;;;;;-145.87;100.00;54973.53;2089421;28;20060;-58
2023/11/01 03:08:57;;;;;;;3.00;0.80;;;;;;;-145.87;100.00;54973.53;2089552;28;20044;-58
2023/11/01 03:09:58;;;;;;;2.85;0.82;;;;;;;-145.87;100.00;54973.53;2089523;28;20057;-57
2023/11/01 03:10:59;;;;;;;3.03;0.80;;;;;;;-145.87;100.00;54973.53;2090005;28;20550;-57
2023/11/01 03:12:01;;;;;;;1.58;0.90;;;;;;;-145.87;100.00;54973.53;2089937;28;20061;-57
2023/11/01 03:13:02;;;;;;;3.35;0.70;;;;;;;-145.87;100.00;54973.53;2089986;28;20052;-57
2023/11/01 03:14:03;;;;;;;1.80;0.55;;;;;;;-145.87;100.00;54973.53;2089436;28;20105;-57
2023/11/01 03:15:07;;;;;;;3.65;0.60;;;;;;;-145.87;100.00;54973.53;2089565;28;20056;-57
2023/11/01 03:16:08;;;;;;;1.77;0.60;;;;;;;-145.87;100.00;54973.53;2089485;28;20067;-57
2023/11/01 03:17:10;;;;;;;2.70;0.90;;;;;;;-145.87;100.00;54973.53;2089748;28;20036;-57
2023/11/01 03:18:11;;;;;;;5.60;0.80;;;;;;;-145.87;100.00;54973.53;2089929;28;20064;-58
2023/11/01 03:19:12;;;;;;;2.50;0.70;;;;;;;-145.87;100.00;54973.53;2089505;28;20044;-57
2023/11/01 03:20:13;;;;;;;5.38;0.90;;;;;;;-145.87;100.00;54973.53;2090076;28;20041;-57
2023/11/01 03:21:14;;;;;;;3.90;1.10;;;;;;;-145.87;100.00;54973.53;2089559;28;20056;-57
2023/11/01 03:22:15;;;;;;;2.78;0.63;;;;;;;-145.87;100.00;54973.53;2080680;28;20049;-57
2023/11/01 03:23:16;;;;;;;5.18;0.77;;;;;;;-145.87;100.00;54973.53;2088938;28;20489;-57
2023/11/01 03:24:18;;;;;;;2.25;0.95;;;;;;;-145.87;100.00;54973.53;2089632;28;20059;-57
2023/11/01 03:25:19;;;;;;;1.73;0.93;;;;;;;-145.87;100.00;54973.53;2081135;28;20049;-57
2023/11/01 03:26:20;;;;;;;2.22;0.60;;;;;;;-145.87;100.00;54973.53;2089555;28;20063;-57
2023/11/01 03:27:21;;;;;;;1.27;0.60;;;;;;;-145.87;100.00;54973.53;2090159;28;20517;-57
2023/11/01 03:28:22;;;;;;;2.05;0.70;;;;;;;-145.87;100.00;54973.53;2090076;28;20056;-57
2023/11/01 03:29:24;;;;;;;4.57;0.82;;;;;;;-145.87;100.00;54973.53;2090155;28;20060;-57
2023/11/01 03:30:25;;;;;;;2.28;0.80;;;;;;;-145.87;100.00;54973.53;2089339;28;20052;-57
2023/11/01 03:31:26;;;;;;;2.22;0.65;;;;;;;-145.87;100.00;54973.53;2081549;28;20053;-57
2023/11/01 03:32:27;;;;;;;2.83;0.77;;;;;;;-145.87;100.00;54973.53;2089601;28;20432;-57
2023/11/01 03:33:28;;;;;;;1.48;0.77;;;;;;;-145.87;100.00;54973.53;2089779;28;20044;-58
2023/11/01 03:34:29;;;;;;;4.80;0.90;;;;;;;-145.87;100.00;54973.53;2089569;28;20056;-58
2023/11/01 03:35:30;;;;;;;2.17;0.80;;;;;;;-145.87;100.00;54973.53;2089814;28;20033;-57
2023/11/01 03:36:32;;;;;;;1.73;0.70;;;;;;;-145.87;100.00;54973.53;2089675;28;20041;-57
2023/11/01 03:37:33;;;;;;;1.98;0.77;;;;;;;-145.87;100.00;54973.53;2089953;28;20045;-57
2023/11/01 03:38:34;;;;;;;2.70;0.60;;;;;;;-145.87;100.00;54973.53;2090438;28;20040;-57
2023/11/01 03:39:35;;;;;;;1.42;0.50;;;;;;;-145.87;100.00;54973.53;2090321;28;20045;-57
2023/11/01 03:40:37;;;;;;;2.88;0.95;;;;;;;-145.87;100.00;54973.53;2089916;28;20044;-57
2023/11/01 03:41:41;;;;;;;1.98;1.20;;;;;;;-145.87;100.00;54973.53;2089338;28;20045;-57
2023/11/01 03:42:42;;;;;;;2.47;1.00;;;;;;;-145.87;100.00;54973.53;2081265;28;20053;-57
2023/11/01 03:43:43;;;;;;;2.50;0.77;;;;;;;-145.87;100.00;54973.53;2089366;28;20048;-57
2023/11/01 03:44:44;;;;;;;0.98;0.52;;;;;;;-145.87;100.00;54973.53;2090080;28;20397;-57
2023/11/01 03:45:45;;;;;;;5.82;0.90;;;;;;;-145.87;100.00;54973.53;2090497;28;20053;-57
2023/11/01 03:46:47;;;;;;;1.88;0.70;;;;;;;-145.87;100.00;54973.53;2091570;28;20044;-57
2023/11/01 03:47:48;;;;;;;3.15;0.98;;;;;;;-145.87;100.00;54973.53;2091724;28;20049;-57
2023/11/01 03:48:49;;;;;;;1.63;0.60;;;;;;;-145.87;100.00;54973.53;2092029;28;20032;-57
2023/11/01 03:49:50;;;;;;;3.28;1.02;;;;;;;-145.87;100.00;54973.53;2091258;28;20040;-55
2023/11/01 03:50:52;;;;;;;3.08;0.65;;;;;;;-145.87;100.00;54973.53;2090729;28;20079;-55
2023/11/01 03:51:53;;;;;;;1.92;0.60;;;;;;;-145.87;100.00;54973.53;2091100;28;20156;-57
2023/11/01 03:52:54;;;;;;;3.63;0.90;;;;;;;-145.87;100.00;54973.53;2090325;28;20525;-57
2023/11/01 03:53:55;;;;;;;2.97;0.73;;;;;;;-145.87;100.00;54973.53;2091114;28;20071;-57
2023/11/01 03:54:56;;;;;;;2.80;0.70;;;;;;;-145.87;100.00;54973.53;2091281;28;20053;-57
2023/11/01 03:55:57;;;;;;;5.47;0.80;;;;;;;-145.87;100.00;54973.53;2091395;28;20055;-55
2023/11/01 03:56:59;;;;;;;1.02;0.70;;;;;;;-145.87;100.00;54973.53;2091521;28;20489;-57
2023/11/01 03:58:00;;;;;;;1.90;0.70;;;;;;;-145.87;100.00;54973.53;2091339;28;20048;-57
2023/11/01 03:59:01;;;;;;;1.65;0.70;;;;;;;-145.87;100.00;54973.53;2091376;28;20188;-57
2023/11/01 04:00:03;;;;;;;1.13;0.70;;;;;;;-145.87;100.00;54973.53;2091074;28;20045;-58
2023/11/01 04:01:05;;;;;;;1.00;0.70;;;;;;;-145.87;100.00;54973.53;2091295;28;20378;-56
2023/11/01 04:02:06;;;;;;;3.33;0.90;;;;;;;-145.87;100.00;54973.53;2091530;28;20405;-57
2023/11/01 04:03:08;;;;;;;1.42;0.80;;;;;;;-145.87;100.00;54973.53;2092023;28;20049;-57
2023/11/01 04:04:09;;;;;;;5.57;1.00;;;;;;;-145.87;100.00;54973.53;2091517;28;20064;-58
2023/11/01 04:05:10;;;;;;;3.38;1.00;;;;;;;-145.87;100.00;54973.53;2091775;28;20057;-58
2023/11/01 04:06:11;;;;;;;3.25;0.90;;;;;;;-145.87;100.00;54973.53;2091728;28;20500;-58
2023/11/01 04:07:12;;;;;;;2.13;0.77;;;;;;;-145.87;100.00;54973.53;2091701;28;20060;-57
2023/11/01 04:08:13;;;;;;;5.10;1.67;;;;;;;-145.87;100.00;54973.53;2091644;28;20048;-57
2023/11/01 04:09:14;;;;;;;1.77;0.70;;;;;;;-145.87;100.00;54973.53;2091507;28;20049;-57
2023/11/01 04:10:15;;;;;;;2.65;1.00;;;;;;;-145.87;100.00;54973.53;2091693;28;20040;-56
2023/11/01 04:11:17;;;;;;;2.70;0.80;;;;;;;-145.87;100.00;54973.53;2091630;28;20071;-57
2023/11/01 04:12:18;;;;;;;1.60;0.80;;;;;;;-145.87;100.00;54973.53;2091614;28;20468;-57
2023/11/01 04:13:19;;;;;;;2.55;0.80;;;;;;;-145.87;100.00;54973.53;2091467;28;20064;-57
2023/11/01 04:14:20;;;;;;;1.55;0.70;;;;;;;-145.87;100.00;54973.53;2092578;28;20057;-58
2023/11/01 04:15:21;;;;;;;1.75;0.63;;;;;;;-145.87;100.00;54973.53;2092573;28;20060;-63
2023/11/01 04:16:23;;;;;;;4.10;0.90;;;;;;;-145.87;100.00;54973.53;2092590;28;20063;-58
2023/11/01 04:17:24;;;;;;;3.92;0.80;;;;;;;-145.87;100.00;54973.53;2093296;28;20362;-57
2023/11/01 04:18:25;;;;;;;2.30;0.80;;;;;;;-145.87;100.00;54973.53;2093236;28;20048;-58
2023/11/01 04:19:26;;;;;;;3.38;1.10;;;;;;;-145.87;100.00;54973.53;2092822;28;20041;-58
2023/11/01 04:20:27;;;;;;;2.20;1.02;;;;;;;-145.87;100.00;54973.53;2092049;28;20064;-57
2023/11/01 04:21:28;;;;;;;1.08;0.80;;;;;;;-145.87;100.00;54973.53;2091701;28;20037;-57
2023/11/01 04:22:29;;;;;;;2.63;1.05;;;;;;;-145.87;100.00;54973.53;2091311;28;20057;-57
2023/11/01 04:23:31;;;;;;;2.45;0.73;;;;;;;-145.87;100.00;54973.53;2091016;28;20053;-57
2023/11/01 04:24:32;;;;;;;4.00;1.13;;;;;;;-145.87;100.00;54973.53;2091728;28;20523;-57
2023/11/01 04:25:33;;;;;;;2.72;0.88;;;;;;;-145.87;100.00;54973.53;2091512;28;20037;-57
2023/11/01 04:26:34;;;;;;;2.00;0.88;;;;;;;-145.87;100.00;54973.53;2091511;28;20052;-57
2023/11/01 04:27:39;;;;;;;2.38;1.13;;;;;;;-145.87;100.00;54973.53;2091073;28;20045;-57
2023/11/01 04:28:40;;;;;;;2.53;0.80;;;;;;;-145.87;100.00;54973.53;2091222;28;20041;-57
2023/11/01 04:29:41;;;;;;;3.70;0.90;;;;;;;-145.87;100.00;54973.53;2091377;28;20045;-57
2023/11/01 04:30:43;;;;;;;3.20;1.08;;;;;;;-145.87;100.00;54973.53;2091359;28;20052;-57
2023/11/01 04:31:44;;;;;;;3.10;0.75;;;;;;;-145.87;100.00;54973.53;2091172;28;20045;-57
2023/11/01 04:32:46;;;;;;;3.70;0.77;;;;;;;-145.87;100.00;54973.53;2091379;28;20052;-57
2023/11/01 04:33:47;;;;;;;2.30;0.70;;;;;;;-145.87;100.00;54973.53;2091380;28;20053;-57
2023/11/01 04:34:50;;;;;;;2.88;1.10;;;;;;;-145.87;100.00;54973.53;2091496;28;20393;-57
2023/11/01 04:35:53;;;;;;;3.30;1.00;;;;;;;-145.87;100.00;54973.53;2091576;28;20381;-58
2023/11/01 04:36:55;;;;;;;2.35;0.82;;;;;;;-145.87;100.00;54973.53;2091431;28;20048;-57
2023/11/01 04:37:57;;;;;;;2.55;0.68;;;;;;;-145.87;100.00;54973.53;2091349;28;20056;-57
2023/11/01 04:38:58;;;;;;;1.27;0.70;;;;;;;-145.87;100.00;54973.53;2091141;28;20045;-57